Weather at Long Banga Airport

Public forecast

Using degrees Celsius for public forecast. Weather courtesy of forecast.io.

Closest aviation weather report (METAR) to Long Banga Airport

Closest report is Miri Airport, 108.2 nm (200.4 km) NW. Retrieved 2021/11/29 05:00 UTC (50 minutes ago):

WBGR 290500Z VRB02KT 9999 FEW016 31/23 Q1008

Closest aviation forecast (TAF) to Long Banga Airport

Closest forecast is Miri Airport, 108.2 nm (200.4 km) NW. Retrieved 2021-11-29 00:00 UTC (6 hours ago):

TAF WBGR 282300Z 2900/3000 22007KT 9999 SCT016 TEMPO 2910/2914 5000 TSRA FEW015CB